Time;durP1;ratioP1;P1;durP2;ratioP2;P2;SDS_P1;SDS_P2;PMS_P1;PMS_P2;Temp;Humidity;BMP_temperature;BMP_pressure;BME280_temperature;BME280_humidity;BME280_pressure;Samples;Min_cycle;Max_cycle;Signal;HPM_P1;HPM_P2
2023/10/16 00:02:14;;;;;;;3.03;2.83;;;8.20;48.70;;;;;;20681;6862;117583;-73
2023/10/16 00:04:43;;;;;;;3.07;2.87;;;8.20;48.70;;;;;;20673;6862;118438;-74
2023/10/16 00:07:06;;;;;;;2.62;2.42;;;7.90;49.60;;;;;;20665;6862;117065;-74
2023/10/16 00:09:34;;;;;;;2.87;2.67;;;7.90;49.50;;;;;;20653;6862;121409;-74
2023/10/16 00:11:58;;;;;;;3.65;2.90;;;7.80;49.80;;;;;;20673;6862;117890;-74
2023/10/16 00:14:24;;;;;;;2.22;2.12;;;7.70;50.10;;;;;;20659;6862;117801;-74
2023/10/16 00:16:50;;;;;;;2.97;2.77;;;7.60;50.30;;;;;;20675;6862;117594;-74
2023/10/16 00:19:16;;;;;;;4.80;3.10;;;7.50;50.80;;;;;;20659;6862;122999;-75
2023/10/16 00:21:45;;;;;;;2.90;2.70;;;7.50;50.80;;;;;;20484;6862;278238;-75
2023/10/16 00:24:10;;;;;;;2.87;2.67;;;7.80;50.20;;;;;;20670;6862;117358;-75
2023/10/16 00:26:38;;;;;;;2.62;2.42;;;7.80;50.10;;;;;;20673;6862;117243;-75
2023/10/16 00:29:07;;;;;;;3.00;2.80;;;7.80;50.10;;;;;;20666;6862;117359;-74
2023/10/16 00:31:32;;;;;;;2.45;2.28;;;7.70;50.40;;;;;;20636;6862;121800;-74
2023/10/16 00:33:53;;;;;;;3.47;2.70;;;7.60;50.60;;;;;;20659;6862;117893;-75
2023/10/16 00:36:19;;;;;;;2.70;2.60;;;7.60;50.90;;;;;;20672;6862;117765;-74
2023/10/16 00:38:51;;;;;;;2.50;2.30;;;7.50;50.90;;;;;;20666;6862;118498;-73
2023/10/16 00:41:17;;;;;;;2.60;2.40;;;7.50;50.90;;;;;;20645;6862;117480;-74
2023/10/16 00:43:35;;;;;;;7.67;2.53;;;7.30;50.80;;;;;;20646;6862;118307;-74
2023/10/16 00:46:05;;;;;;;2.60;2.50;;;7.20;50.80;;;;;;20466;6860;279475;-74
2023/10/16 00:48:27;;;;;;;2.50;2.40;;;7.40;49.90;;;;;;20451;6861;313058;-74
2023/10/16 00:50:54;;;;;;;2.85;2.67;;;7.80;48.80;;;;;;20468;6861;311902;-74
2023/10/16 00:53:29;;;;;;;2.93;2.80;;;8.10;47.90;;;;;;20457;6861;305142;-74
2023/10/16 00:55:46;;;;;;;2.50;2.40;;;8.20;48.30;;;;;;20610;6861;117845;-74
2023/10/16 00:58:11;;;;;;;2.60;2.40;;;8.10;47.60;;;;;;20447;6862;310338;-74
2023/10/16 01:00:38;;;;;;;2.53;2.40;;;8.00;47.70;;;;;;20676;6862;117317;-73
2023/10/16 01:03:04;;;;;;;2.43;2.20;;;8.00;47.70;;;;;;20665;6862;117426;-73
2023/10/16 01:05:30;;;;;;;2.77;2.57;;;7.70;48.30;;;;;;20425;6862;319725;-74
2023/10/16 01:07:55;;;;;;;2.50;2.40;;;7.80;47.80;;;;;;20662;6862;117465;-74
2023/10/16 01:10:22;;;;;;;2.40;2.30;;;7.70;47.90;;;;;;20457;6862;338029;-75
2023/10/16 01:12:54;;;;;;;3.03;2.83;;;7.70;47.90;;;;;;20668;6862;117339;-76
2023/10/16 01:15:15;;;;;;;3.00;2.80;;;7.70;48.00;;;;;;20415;6862;308739;-75
2023/10/16 01:17:40;;;;;;;3.27;3.07;;;7.80;47.90;;;;;;20456;6862;283360;-74
2023/10/16 01:20:09;;;;;;;3.17;2.40;;;8.10;47.00;;;;;;20670;6862;117734;-74
2023/10/16 01:22:34;;;;;;;2.90;2.63;;;7.90;47.10;;;;;;20657;6862;117355;-74
2023/10/16 01:24:59;;;;;;;2.70;2.60;;;7.60;48.00;;;;;;20646;6862;119219;-75
2023/10/16 01:27:29;;;;;;;2.93;2.73;;;7.30;48.60;;;;;;20616;6862;118101;-74
2023/10/16 01:29:54;;;;;;;3.10;2.90;;;7.10;49.20;;;;;;20439;6862;280274;-75
2023/10/16 01:32:19;;;;;;;3.60;3.30;;;7.30;49.50;;;;;;20454;6862;308713;-74
2023/10/16 01:34:46;;;;;;;3.40;3.10;;;7.70;49.10;;;;;;20454;6862;282394;-75
2023/10/16 01:37:18;;;;;;;3.70;2.87;;;8.00;48.20;;;;;;20658;6862;117240;-74
2023/10/16 01:39:49;;;;;;;2.90;2.70;;;7.70;49.00;;;;;;20645;6862;118707;-75
2023/10/16 01:42:18;;;;;;;2.67;2.37;;;7.60;48.90;;;;;;20663;6862;117550;-75
2023/10/16 01:44:43;;;;;;;2.40;2.30;;;7.40;49.40;;;;;;20659;6862;118073;-74
2023/10/16 01:47:15;;;;;;;3.83;3.17;;;7.40;49.00;;;;;;20453;6862;309167;-76
2023/10/16 01:49:35;;;;;;;3.17;2.90;;;7.40;49.10;;;;;;20620;6862;119320;-75
2023/10/16 01:52:04;;;;;;;3.30;3.00;;;7.50;49.20;;;;;;20446;6862;282357;-74
2023/10/16 01:54:26;;;;;;;2.58;2.47;;;7.60;48.80;;;;;;20652;6862;120881;-75
2023/10/16 01:56:52;;;;;;;3.15;2.85;;;7.60;48.80;;;;;;20455;6862;312786;-75
2023/10/16 01:59:21;;;;;;;2.97;2.78;;;7.70;48.00;;;;;;20435;6860;309180;-75
2023/10/16 02:01:43;;;;;;;3.00;2.80;;;8.00;46.90;;;;;;20442;6861;308290;-75
2023/10/16 02:04:10;;;;;;;2.90;2.70;;;8.20;45.60;;;;;;20459;6861;317024;-74
2023/10/16 02:06:36;;;;;;;2.53;2.43;;;8.20;45.60;;;;;;20668;6861;117230;-74
2023/10/16 02:09:03;;;;;;;2.90;2.70;;;7.90;46.20;;;;;;20455;6862;278284;-75
2023/10/16 02:11:27;;;;;;;3.10;2.83;;;7.80;46.00;;;;;;20651;6862;118763;-75
2023/10/16 02:13:52;;;;;;;3.12;2.90;;;7.60;46.50;;;;;;20441;6862;307843;-75
2023/10/16 02:16:19;;;;;;;2.93;2.73;;;7.60;47.20;;;;;;20663;6862;120229;-75
2023/10/16 02:18:47;;;;;;;2.80;2.60;;;7.20;47.90;;;;;;20662;6862;118253;-74
2023/10/16 02:21:11;;;;;;;2.73;2.60;;;7.20;47.90;;;;;;20650;6862;117718;-74
2023/10/16 02:23:37;;;;;;;3.03;2.83;;;6.90;48.30;;;;;;20406;6862;309446;-75
2023/10/16 02:26:05;;;;;;;3.60;2.97;;;7.00;47.90;;;;;;20635;6862;118734;-74
2023/10/16 02:28:33;;;;;;;3.10;2.90;;;7.00;48.00;;;;;;20441;6862;307651;-74
2023/10/16 02:31:05;;;;;;;3.10;2.90;;;7.10;48.10;;;;;;20455;6862;340470;-74
2023/10/16 02:33:35;;;;;;;2.80;2.60;;;7.50;48.10;;;;;;20679;6862;117982;-74
2023/10/16 02:35:57;;;;;;;2.85;2.67;;;7.40;48.40;;;;;;20449;6862;305564;-75
2023/10/16 02:38:29;;;;;;;3.20;2.97;;;7.50;48.60;;;;;;20459;6862;308501;-75
2023/10/16 02:40:53;;;;;;;3.10;2.80;;;7.70;47.70;;;;;;20655;6862;117098;-74
2023/10/16 02:43:21;;;;;;;2.70;2.60;;;7.60;47.90;;;;;;20646;6862;147337;-75
2023/10/16 02:45:47;;;;;;;2.50;2.22;;;7.20;49.10;;;;;;20637;6862;122738;-74
2023/10/16 02:48:10;;;;;;;2.83;2.73;;;7.10;49.00;;;;;;20442;6862;308193;-74
2023/10/16 02:50:41;;;;;;;2.90;2.70;;;7.50;47.20;;;;;;20452;6862;308713;-74
2023/10/16 02:53:06;;;;;;;3.03;2.72;;;7.50;47.20;;;;;;20447;6862;310378;-75
2023/10/16 02:55:30;;;;;;;2.80;2.53;;;7.80;47.10;;;;;;20678;6862;117416;-75
2023/10/16 02:57:55;;;;;;;2.37;2.27;;;7.30;48.00;;;;;;20712;6862;116981;-74
2023/10/16 03:00:33;;;;;;;2.60;2.43;;;7.20;47.90;;;;;;20666;6862;116193;-74
2023/10/16 03:02:51;;;;;;;2.77;2.63;;;7.00;48.60;;;;;;20626;6862;113916;-75
2023/10/16 03:05:22;;;;;;;2.70;2.50;;;6.80;49.20;;;;;;20439;6862;279273;-75
2023/10/16 03:07:49;;;;;;;3.00;2.87;;;7.00;48.50;;;;;;20437;6862;338234;-74
2023/10/16 03:10:16;;;;;;;2.87;2.73;;;7.30;47.90;;;;;;20675;6860;124411;-73
2023/10/16 03:12:42;;;;;;;2.58;2.47;;;7.00;48.70;;;;;;20661;6861;123740;-73
2023/10/16 03:15:20;;;;;;;3.70;3.40;;;6.90;48.60;;;;;;20440;6861;287513;-76
2023/10/16 03:19:57;;;;;;;3.62;3.42;;;7.30;46.40;;;;;;20660;6861;117668;-74
2023/10/16 03:22:23;;;;;;;3.50;3.20;;;7.10;46.60;;;;;;20445;6862;308516;-74
2023/10/16 03:24:51;;;;;;;2.90;2.78;;;7.20;47.40;;;;;;20659;6862;117524;-74
2023/10/16 03:27:28;;;;;;;3.40;3.17;;;7.10;47.60;;;;;;20423;6862;279115;-74
2023/10/16 03:29:43;;;;;;;4.23;2.73;;;7.10;46.90;;;;;;20540;6862;124418;-74
2023/10/16 03:32:08;;;;;;;3.63;3.43;;;7.00;47.20;;;;;;20645;6862;117818;-74
2023/10/16 03:34:34;;;;;;;3.80;3.50;;;6.70;48.10;;;;;;20490;6862;292259;-71
2023/10/16 03:37:06;;;;;;;5.83;5.43;;;6.90;48.40;;;;;;20435;6862;278443;-72
2023/10/16 03:39:27;;;;;;;4.25;3.92;;;7.20;47.10;;;;;;20410;6862;285368;-72
2023/10/16 03:41:53;;;;;;;4.27;3.87;;;7.40;46.30;;;;;;20421;6862;303464;-71
2023/10/16 03:44:18;;;;;;;4.10;3.80;;;7.60;46.50;;;;;;20657;6862;118056;-73
2023/10/16 03:46:44;;;;;;;3.93;3.70;;;7.40;47.00;;;;;;20437;6862;307877;-70
2023/10/16 03:49:14;;;;;;;3.60;3.40;;;7.40;46.80;;;;;;20448;6862;307855;-72
2023/10/16 03:51:38;;;;;;;4.00;3.70;;;7.60;45.70;;;;;;20438;6862;308911;-72
2023/10/16 03:54:04;;;;;;;3.92;3.67;;;7.70;46.70;;;;;;20447;6862;282377;-73
2023/10/16 03:56:32;;;;;;;3.57;3.37;;;7.80;46.30;;;;;;20452;6862;299522;-72
2023/10/16 03:58:58;;;;;;;3.57;3.30;;;7.60;46.70;;;;;;20660;6862;123953;-72
2023/10/16 04:01:27;;;;;;;3.92;3.62;;;7.60;46.70;;;;;;20431;6862;307543;-73
2023/10/16 04:03:56;;;;;;;4.35;4.05;;;7.60;46.60;;;;;;20442;6862;340279;-72
2023/10/16 04:06:22;;;;;;;3.70;3.30;;;7.80;46.00;;;;;;20664;6862;117353;-73
2023/10/16 04:08:47;;;;;;;3.90;3.70;;;7.50;46.30;;;;;;20665;6862;117825;-72
2023/10/16 04:11:13;;;;;;;4.37;4.07;;;7.10;47.00;;;;;;20434;6862;313650;-74
2023/10/16 04:13:49;;;;;;;3.60;3.40;;;7.10;46.50;;;;;;20663;6862;118337;-72
2023/10/16 04:16:30;;;;;;;3.40;3.20;;;7.00;46.80;;;;;;20666;6862;117405;-73
2023/10/16 04:18:44;;;;;;;3.80;3.60;;;6.70;47.50;;;;;;20413;6862;277586;-72
2023/10/16 04:26:35;;;;;;;3.67;3.37;;;7.20;45.30;;;;;;20460;6861;307803;-71
2023/10/16 04:36:52;;;;;;;23.33;3.47;;;7.40;44.90;;;;;;20448;6862;278969;-72
2023/10/16 04:44:49;;;;;;;2.53;2.43;;;7.00;45.80;;;;;;20665;6862;117870;-72
2023/10/16 04:47:17;;;;;;;2.65;2.55;;;6.50;46.90;;;;;;20431;6862;279110;-73
2023/10/16 04:49:45;;;;;;;2.20;2.10;;;6.50;47.60;;;;;;20659;6862;118273;-73
2023/10/16 04:52:14;;;;;;;2.83;2.63;;;6.40;47.60;;;;;;20422;6861;312438;-73
2023/10/16 05:02:40;;;;;;;2.53;2.43;;;6.30;47.60;;;;;;20670;6862;117561;-71
2023/10/16 05:05:32;;;;;;;2.62;2.53;;;5.80;48.60;;;;;;20642;6862;117658;-75
2023/10/16 05:07:38;;;;;;;2.53;2.33;;;5.80;48.60;;;;;;20570;6862;117914;-73
2023/10/16 05:10:18;;;;;;;2.50;2.40;;;5.70;49.10;;;;;;20655;6862;124337;-72
2023/10/16 05:15:41;;;;;;;2.63;2.53;;;5.40;49.80;;;;;;20618;6862;118231;-72
2023/10/16 05:18:20;;;;;;;2.30;2.20;;;5.40;49.70;;;;;;20658;6862;124624;-73
2023/10/16 06:15:50;;;;;;;2.77;2.67;;;6.10;49.00;;;;;;20668;6861;117852;-77
2023/10/16 06:18:17;;;;;;;2.80;2.70;;;5.90;49.70;;;;;;20663;6861;117075;-76
2023/10/16 06:20:45;;;;;;;3.60;3.40;;;5.90;49.70;;;;;;20421;6861;317140;-76
2023/10/16 06:23:10;;;;;;;3.20;3.00;;;6.10;48.80;;;;;;20621;6861;117355;-77
2023/10/16 06:25:34;;;;;;;3.80;3.60;;;6.40;49.20;;;;;;20387;6861;311425;-76
2023/10/16 06:28:00;;;;;;;4.50;4.20;;;6.40;48.70;;;;;;20395;6878;289208;-77
2023/10/16 06:30:25;;;;;;;4.28;3.97;;;6.80;48.00;;;;;;20462;6861;281543;-74
2023/10/16 06:32:52;;;;;;;4.97;4.57;;;7.20;47.40;;;;;;20453;6861;313265;-77
2023/10/16 06:35:16;;;;;;;2.93;2.73;;;7.40;46.80;;;;;;20625;6861;117376;-78
2023/10/16 06:37:51;;;;;;;2.75;2.60;;;7.30;47.10;;;;;;20456;6861;308696;-78
2023/10/16 06:40:16;;;;;;;3.10;3.00;;;7.30;46.60;;;;;;20435;6861;316150;-78
2023/10/16 06:42:33;;;;;;;2.57;2.47;;;7.50;46.30;;;;;;20640;6861;121204;-77
2023/10/16 06:45:19;;;;;;;7.90;2.80;;;7.30;46.60;;;;;;20658;6859;122728;-77
2023/10/16 06:47:41;;;;;;;41.87;3.50;;;7.00;47.40;;;;;;20599;6860;118226;-77
2023/10/16 06:50:32;;;;;;;22.73;3.13;;;6.70;47.90;;;;;;20655;6860;118569;-78
2023/10/16 06:52:28;;;;;;;38.90;3.30;;;6.50;48.50;;;;;;20599;6861;117420;-78
2023/10/16 06:54:54;;;;;;;51.90;4.20;;;6.40;49.10;;;;;;20460;6861;308239;-78
2023/10/16 06:57:19;;;;;;;15.80;3.00;;;6.50;48.10;;;;;;20644;6861;119126;-78
2023/10/16 06:59:45;;;;;;;17.02;4.05;;;6.60;48.10;;;;;;20665;6861;118036;-78
2023/10/16 07:02:19;;;;;;;6.63;4.57;;;6.40;48.50;;;;;;20444;6861;313439;-78
2023/10/16 07:04:40;;;;;;;5.10;4.00;;;6.60;48.10;;;;;;20630;6861;121367;-77
2023/10/16 07:07:14;;;;;;;7.43;3.50;;;6.60;48.20;;;;;;20653;6861;118928;-77
2023/10/16 07:09:37;;;;;;;4.50;3.50;;;6.60;48.70;;;;;;20609;6861;119744;-77
2023/10/16 07:12:03;;;;;;;11.17;4.07;;;6.50;49.10;;;;;;20446;6861;316497;-78
2023/10/16 07:14:29;;;;;;;5.30;4.00;;;6.70;48.80;;;;;;20655;6861;119057;-77
2023/10/16 07:16:56;;;;;;;3.40;3.20;;;6.90;48.90;;;;;;20662;6861;117970;-77
2023/10/16 07:19:20;;;;;;;7.87;3.20;;;6.90;49.20;;;;;;20641;6861;120954;-77
2023/10/16 07:21:48;;;;;;;8.27;3.23;;;6.90;49.60;;;;;;20665;6861;117942;-77
2023/10/16 07:24:12;;;;;;;9.27;3.73;;;6.90;50.00;;;;;;20659;6861;117753;-77
2023/10/16 07:26:38;;;;;;;12.97;3.90;;;6.90;50.00;;;;;;20449;6861;313215;-77
2023/10/16 07:29:05;;;;;;;14.60;3.60;;;7.20;49.20;;;;;;20657;6861;121565;-77
2023/10/16 07:31:29;;;;;;;5.72;3.10;;;7.40;49.10;;;;;;20655;6861;123034;-74
2023/10/16 07:33:59;;;;;;;7.30;3.40;;;7.40;49.30;;;;;;20471;6861;308745;-75
2023/10/16 07:36:20;;;;;;;23.62;3.92;;;7.50;48.90;;;;;;20445;6861;312730;-75
2023/10/16 07:38:48;;;;;;;21.73;4.12;;;8.00;48.50;;;;;;20455;6861;296226;-73
2023/10/16 07:41:13;;;;;;;51.33;4.60;;;8.30;47.00;;;;;;20666;6861;117896;-74
2023/10/16 07:43:37;;;;;;;72.32;5.62;;;8.30;47.00;;;;;;20428;6861;338868;-76
2023/10/16 07:48:34;;;;;;;296.77;9.83;;;8.20;47.20;;;;;;20434;6861;328624;-75
2023/10/16 07:51:06;;;;;;;40.03;5.93;;;8.30;47.00;;;;;;20669;6861;118117;-74
2023/10/16 07:53:28;;;;;;;41.47;9.27;;;8.30;47.30;;;;;;20627;6861;121780;-75
2023/10/16 07:55:51;;;;;;;83.80;7.05;;;8.10;47.90;;;;;;20447;6859;311127;-75
2023/10/16 07:58:23;;;;;;;93.78;7.05;;;8.50;47.50;;;;;;20451;6860;309274;-75
2023/10/16 08:00:59;;;;;;;7.70;6.13;;;8.50;47.40;;;;;;20633;6860;117435;-77
2023/10/16 08:03:13;;;;;;;10.75;5.47;;;8.50;47.60;;;;;;20613;6861;122098;-75
2023/10/16 08:05:35;;;;;;;145.30;7.47;;;8.50;48.40;;;;;;20427;6861;337818;-78
2023/10/16 08:08:01;;;;;;;110.83;6.23;;;8.40;47.90;;;;;;20672;6861;117676;-76
2023/10/16 08:10:43;;;;;;;15.55;4.20;;;8.50;47.90;;;;;;20637;6861;119542;-77
2023/10/16 08:13:12;;;;;;;65.43;5.70;;;8.10;49.20;;;;;;20657;6861;117438;-78
2023/10/16 08:15:55;;;;;;;24.70;5.10;;;8.10;48.90;;;;;;20641;6861;122918;-76
2023/10/16 08:18:19;;;;;;;52.93;5.80;;;8.10;49.40;;;;;;20661;6861;117855;-77
2023/10/16 08:20:50;;;;;;;26.42;4.70;;;8.00;49.60;;;;;;20674;6861;119107;-76
2023/10/16 08:23:15;;;;;;;42.00;5.82;;;7.90;49.90;;;;;;20436;6861;314403;-76
2023/10/16 08:25:41;;;;;;;38.80;5.97;;;8.20;49.80;;;;;;20452;6861;313231;-77
2023/10/16 08:28:20;;;;;;;15.70;5.77;;;9.20;48.50;;;;;;20452;6861;308990;-77
2023/10/16 08:30:49;;;;;;;25.73;6.87;;;9.20;48.50;;;;;;20665;6861;117510;-77
2023/10/16 08:33:19;;;;;;;27.43;7.13;;;9.20;49.60;;;;;;20649;6861;118679;-78
2023/10/16 08:35:45;;;;;;;9.50;6.83;;;9.20;49.00;;;;;;20448;6861;312920;-77
2023/10/16 08:38:15;;;;;;;13.02;8.60;;;9.80;48.30;;;;;;20448;6861;318935;-75
2023/10/16 08:40:39;;;;;;;8.07;7.33;;;9.70;47.50;;;;;;20651;6861;117376;-75
2023/10/16 08:43:07;;;;;;;7.80;7.10;;;9.90;48.60;;;;;;20656;6861;117327;-75
2023/10/16 08:45:32;;;;;;;6.23;5.47;;;9.80;48.50;;;;;;20629;6861;145275;-76
2023/10/16 08:47:56;;;;;;;13.15;6.05;;;10.00;48.30;;;;;;20454;6861;283500;-77
2023/10/16 08:50:25;;;;;;;11.07;6.20;;;10.20;47.30;;;;;;20454;6861;309146;-77
2023/10/16 08:52:56;;;;;;;14.50;5.43;;;10.50;46.30;;;;;;20659;6861;118125;-78
2023/10/16 08:55:16;;;;;;;6.63;5.27;;;10.40;47.00;;;;;;20632;6861;124031;-77
2023/10/16 08:57:43;;;;;;;8.50;5.40;;;10.40;47.10;;;;;;20666;6861;117861;-76
2023/10/16 09:00:15;;;;;;;7.50;5.27;;;10.30;47.80;;;;;;20659;6861;123774;-77
2023/10/16 09:02:35;;;;;;;6.07;5.67;;;10.30;48.40;;;;;;20638;6861;119093;-76
2023/10/16 09:05:08;;;;;;;5.60;5.20;;;10.40;48.90;;;;;;20653;6861;117908;-78
2023/10/16 09:07:31;;;;;;;4.97;4.67;;;10.80;49.30;;;;;;20634;6859;118568;-77
2023/10/16 09:09:55;;;;;;;4.97;4.67;;;10.70;49.20;;;;;;20663;6860;117641;-76
2023/10/16 09:12:26;;;;;;;6.60;6.20;;;11.00;49.40;;;;;;20454;6860;309128;-79
2023/10/16 09:14:55;;;;;;;6.53;5.90;;;11.40;48.50;;;;;;20665;6861;119140;-77
2023/10/16 09:17:24;;;;;;;6.30;5.70;;;11.60;48.20;;;;;;20595;6861;131898;-78
2023/10/16 09:19:49;;;;;;;5.93;5.60;;;11.70;48.30;;;;;;20667;6861;117833;-76
2023/10/16 09:22:15;;;;;;;6.77;6.27;;;11.80;48.40;;;;;;20668;6861;117454;-77
2023/10/16 09:24:44;;;;;;;7.30;6.60;;;11.80;48.30;;;;;;20687;6861;117843;-78
2023/10/16 09:27:13;;;;;;;6.40;5.90;;;11.90;48.40;;;;;;20668;6861;122318;-80
2023/10/16 09:29:35;;;;;;;6.87;6.37;;;12.00;48.50;;;;;;20438;6861;428505;-81
2023/10/16 09:32:02;;;;;;;7.03;6.53;;;12.30;47.10;;;;;;20540;6861;308731;-77
2023/10/16 09:34:26;;;;;;;6.95;6.45;;;12.80;46.10;;;;;;20655;6861;119293;-79
2023/10/16 09:39:34;;;;;;;7.43;6.93;;;13.00;46.60;;;;;;20502;6861;290512;-81
2023/10/16 09:42:00;;;;;;;6.70;6.10;;;13.20;45.60;;;;;;20754;6861;78755;-80
2023/10/16 09:44:36;;;;;;;5.30;4.63;;;13.30;45.40;;;;;;20723;6861;116411;-80
2023/10/16 09:46:54;;;;;;;4.20;4.00;;;13.20;45.70;;;;;;20663;6861;113909;-81
2023/10/16 09:49:27;;;;;;;4.87;4.57;;;13.00;45.70;;;;;;20435;6861;279014;-81
2023/10/16 09:51:57;;;;;;;3.87;3.57;;;13.00;44.00;;;;;;20663;6861;117639;-80
2023/10/16 09:54:21;;;;;;;4.40;4.00;;;13.10;44.60;;;;;;20648;6861;119080;-78
2023/10/16 09:56:44;;;;;;;4.40;4.10;;;13.00;45.10;;;;;;20454;6861;281114;-78
2023/10/16 09:59:32;;;;;;;4.73;4.40;;;13.20;42.70;;;;;;20448;6861;302845;-79
2023/10/16 10:02:02;;;;;;;3.67;3.47;;;13.50;42.30;;;;;;20654;6861;117717;-77
2023/10/16 10:04:27;;;;;;;4.30;3.90;;;13.60;43.10;;;;;;20442;6861;309271;-77
2023/10/16 10:06:53;;;;;;;4.22;3.90;;;13.80;41.90;;;;;;20447;6861;342368;-78
2023/10/16 10:11:57;;;;;;;3.13;3.00;;;14.20;41.70;;;;;;20664;6861;117639;-73
2023/10/16 10:14:49;;;;;;;3.80;3.60;;;14.00;42.30;;;;;;20405;6861;313115;-75
2023/10/16 10:16:45;;;;;;;3.80;3.50;;;14.20;40.50;;;;;;20213;6861;310602;-73
2023/10/16 10:19:36;;;;;;;3.23;3.03;;;14.40;39.50;;;;;;20672;6859;121442;-73
2023/10/16 10:22:16;;;;;;;3.50;3.30;;;14.40;40.50;;;;;;20675;6860;117791;-73
2023/10/16 10:24:35;;;;;;;3.50;3.20;;;14.20;41.50;;;;;;20649;6860;117467;-76
2023/10/16 10:27:02;;;;;;;3.08;2.78;;;14.00;41.90;;;;;;20666;6861;117514;-73
2023/10/16 10:29:25;;;;;;;3.10;2.90;;;13.90;42.20;;;;;;20635;6861;117858;-73
2023/10/16 10:31:52;;;;;;;2.97;2.78;;;13.80;42.30;;;;;;20665;6861;118772;-76
2023/10/16 10:34:27;;;;;;;3.90;2.60;;;13.70;42.60;;;;;;20667;6861;121392;-77
2023/10/16 10:36:47;;;;;;;3.17;2.97;;;13.70;43.00;;;;;;20421;6861;295402;-75
2023/10/16 10:39:23;;;;;;;2.95;2.65;;;14.00;40.50;;;;;;20657;6861;118193;-74
2023/10/16 10:41:51;;;;;;;2.13;2.00;;;14.10;40.90;;;;;;20663;6861;117645;-75
2023/10/16 10:44:18;;;;;;;2.55;2.45;;;14.00;41.20;;;;;;20446;6861;340130;-76
2023/10/16 10:46:44;;;;;;;3.20;3.00;;;14.10;39.30;;;;;;20446;6861;337872;-75
2023/10/16 10:49:12;;;;;;;3.10;2.90;;;14.40;38.80;;;;;;20443;6861;317258;-75
2023/10/16 10:51:44;;;;;;;2.87;2.25;;;14.60;39.10;;;;;;20643;6861;119012;-74
2023/10/16 10:54:06;;;;;;;2.67;2.30;;;14.60;39.10;;;;;;20656;6861;117573;-76
2023/10/16 10:56:40;;;;;;;1.90;1.80;;;14.30;40.00;;;;;;20661;6861;118052;-77
2023/10/16 10:59:10;;;;;;;2.10;2.00;;;14.30;40.00;;;;;;20672;6861;119352;-77
2023/10/16 11:01:37;;;;;;;2.40;2.20;;;14.20;40.40;;;;;;20637;6861;124090;-76
2023/10/16 11:04:01;;;;;;;4.25;3.70;;;14.10;40.60;;;;;;20423;6861;279479;-76
2023/10/16 11:06:39;;;;;;;2.70;2.50;;;14.30;39.50;;;;;;20664;6861;117923;-76
2023/10/16 11:08:58;;;;;;;3.30;3.00;;;14.30;39.40;;;;;;20434;6861;309110;-77
2023/10/16 11:11:23;;;;;;;2.58;2.40;;;14.50;37.90;;;;;;20639;6861;118275;-76
2023/10/16 11:13:49;;;;;;;3.72;3.42;;;14.60;38.90;;;;;;20457;6861;279691;-76
2023/10/16 11:16:15;;;;;;;2.40;2.30;;;14.70;38.10;;;;;;20648;6861;118825;-76
2023/10/16 11:18:40;;;;;;;2.63;2.53;;;14.80;39.10;;;;;;20666;6861;117465;-76
2023/10/16 11:21:07;;;;;;;2.70;2.50;;;14.60;40.20;;;;;;20663;6861;117530;-76
2023/10/16 11:23:32;;;;;;;3.03;2.80;;;14.60;40.00;;;;;;20435;6861;338779;-76
2023/10/16 11:25:58;;;;;;;2.90;2.75;;;14.80;38.40;;;;;;20669;6861;117908;-74
2023/10/16 11:28:28;;;;;;;2.95;2.83;;;14.90;38.90;;;;;;20654;6861;118613;-76
2023/10/16 11:30:56;;;;;;;2.97;2.67;;;14.80;39.10;;;;;;20678;6859;117796;-77
2023/10/16 11:33:26;;;;;;;3.40;3.20;;;14.70;39.90;;;;;;20447;6860;284269;-78
2023/10/16 11:35:51;;;;;;;2.93;2.83;;;14.80;38.30;;;;;;20673;6860;117688;-75
2023/10/16 11:38:28;;;;;;;5.53;3.40;;;14.90;39.20;;;;;;20670;6861;118175;-77
2023/10/16 11:40:50;;;;;;;3.40;3.20;;;14.80;39.60;;;;;;20445;6861;311624;-80
2023/10/16 11:43:18;;;;;;;3.60;3.33;;;15.00;38.30;;;;;;20424;6861;308710;-75
2023/10/16 11:45:40;;;;;;;2.90;2.80;;;15.30;37.40;;;;;;20445;6861;295034;-74
2023/10/16 11:48:27;;;;;;;2.40;2.23;;;15.50;35.90;;;;;;20663;6861;118058;-75
2023/10/16 11:50:43;;;;;;;2.70;2.50;;;15.40;36.80;;;;;;20420;6861;278651;-75
2023/10/16 11:53:10;;;;;;;3.00;2.67;;;15.50;36.10;;;;;;20442;6861;308267;-75
2023/10/16 11:55:36;;;;;;;2.50;2.30;;;15.70;36.00;;;;;;20639;6861;117309;-76
2023/10/16 11:58:11;;;;;;;2.40;2.13;;;15.60;37.00;;;;;;20681;6861;118974;-73
2023/10/16 12:00:45;;;;;;;2.87;2.67;;;15.50;35.80;;;;;;20464;6861;279491;-73
2023/10/16 12:03:14;;;;;;;2.83;2.63;;;15.50;35.90;;;;;;20466;6861;308979;-72
2023/10/16 12:05:37;;;;;;;3.10;2.22;;;15.60;36.30;;;;;;20649;6861;119271;-73
2023/10/16 12:08:07;;;;;;;2.23;2.13;;;15.60;36.70;;;;;;20675;6861;117931;-71
2023/10/16 12:10:29;;;;;;;2.43;2.23;;;15.50;37.40;;;;;;20431;6861;279673;-75
2023/10/16 12:12:55;;;;;;;2.60;2.43;;;15.50;35.50;;;;;;20665;6861;118236;-75
2023/10/16 12:15:25;;;;;;;2.37;2.17;;;15.60;35.00;;;;;;20436;6861;338605;-74
2023/10/16 12:17:49;;;;;;;2.17;2.07;;;15.60;35.00;;;;;;20462;6861;309303;-74
2023/10/16 12:20:16;;;;;;;2.08;1.98;;;15.80;34.90;;;;;;20470;6861;342948;-75
2023/10/16 12:22:43;;;;;;;1.83;1.70;;;15.90;34.90;;;;;;20677;6861;117374;-75
2023/10/16 12:25:10;;;;;;;2.05;1.90;;;15.90;35.90;;;;;;20680;6861;117913;-75
2023/10/16 12:27:36;;;;;;;1.80;1.70;;;15.70;36.30;;;;;;20654;6861;121444;-74
2023/10/16 12:30:01;;;;;;;2.33;2.13;;;15.50;36.70;;;;;;20669;6861;117888;-74
2023/10/16 12:32:26;;;;;;;2.08;1.90;;;15.30;37.30;;;;;;20457;6861;284452;-74
2023/10/16 12:34:54;;;;;;;1.83;1.33;;;15.40;36.60;;;;;;20669;6861;118664;-74
2023/10/16 12:37:22;;;;;;;2.20;1.77;;;15.40;35.90;;;;;;20655;6861;117529;-73
2023/10/16 12:39:46;;;;;;;1.35;1.25;;;15.20;36.60;;;;;;20663;6861;118704;-73
2023/10/16 12:42:13;;;;;;;1.50;1.40;;;15.20;36.60;;;;;;20463;6859;308696;-73
2023/10/16 12:44:37;;;;;;;1.85;1.48;;;15.30;34.30;;;;;;20469;6860;280903;-73
2023/10/16 12:47:03;;;;;;;1.60;1.50;;;15.60;34.10;;;;;;20677;6860;119089;-73
2023/10/16 12:49:30;;;;;;;1.97;1.87;;;15.60;35.00;;;;;;20448;6861;309262;-73
2023/10/16 12:51:55;;;;;;;3.37;1.60;;;15.70;32.70;;;;;;20673;6861;118157;-70
2023/10/16 12:54:24;;;;;;;1.65;1.50;;;15.60;33.90;;;;;;20460;6861;279151;-70
2023/10/16 12:56:48;;;;;;;2.40;1.93;;;15.50;34.20;;;;;;20662;6861;117432;-72
2023/10/16 12:59:14;;;;;;;1.77;1.67;;;15.60;33.20;;;;;;20453;6861;308644;-71
2023/10/16 13:01:40;;;;;;;1.60;1.50;;;15.60;33.20;;;;;;20282;6861;291220;-71
2023/10/16 13:04:15;;;;;;;3.07;1.50;;;15.90;32.80;;;;;;20661;6861;119542;-74
2023/10/16 13:06:30;;;;;;;1.60;1.50;;;15.80;33.60;;;;;;20387;6861;308689;-73
2023/10/16 13:08:56;;;;;;;3.05;1.62;;;15.80;32.20;;;;;;20455;6861;280407;-73
2023/10/16 13:11:22;;;;;;;1.50;1.40;;;16.10;31.50;;;;;;20437;6861;308784;-74
2023/10/16 13:13:48;;;;;;;1.43;1.33;;;16.00;31.40;;;;;;20453;6861;342867;-75
2023/10/16 13:16:24;;;;;;;1.45;1.35;;;16.00;32.70;;;;;;20670;6861;117467;-73
2023/10/16 13:18:40;;;;;;;1.43;1.33;;;16.00;32.60;;;;;;20617;6861;117420;-72
2023/10/16 13:21:13;;;;;;;2.15;1.37;;;15.70;33.60;;;;;;20451;6861;310959;-74
2023/10/16 13:23:36;;;;;;;1.33;1.23;;;15.70;32.80;;;;;;20637;6861;118283;-76
2023/10/16 13:26:01;;;;;;;1.00;1.00;;;15.60;33.50;;;;;;20660;6861;119530;-80
2023/10/16 13:28:27;;;;;;;1.30;1.20;;;15.50;32.80;;;;;;20446;6861;308310;-72
2023/10/16 13:30:53;;;;;;;1.20;1.20;;;15.50;32.80;;;;;;20666;6861;117961;-73
2023/10/16 13:33:18;;;;;;;2.05;1.30;;;15.50;33.70;;;;;;20644;6861;119277;-73
2023/10/16 13:35:44;;;;;;;1.40;1.30;;;15.40;34.40;;;;;;20456;6861;307155;-73
2023/10/16 13:38:10;;;;;;;1.40;1.30;;;15.70;31.90;;;;;;20448;6861;308280;-76
2023/10/16 13:40:36;;;;;;;1.23;1.10;;;15.70;31.90;;;;;;20665;6861;118047;-73
2023/10/16 13:43:10;;;;;;;1.07;1.07;;;15.70;33.10;;;;;;20460;6861;303390;-74
2023/10/16 13:45:30;;;;;;;2.90;1.10;;;15.70;32.10;;;;;;20618;6861;118953;-73
2023/10/16 13:47:55;;;;;;;1.43;1.10;;;15.60;33.20;;;;;;20672;6861;117609;-75
2023/10/16 13:50:25;;;;;;;1.42;1.33;;;15.50;32.50;;;;;;20464;6861;278965;-73
2023/10/16 13:52:50;;;;;;;1.40;1.30;;;15.50;32.40;;;;;;20450;6861;309062;-73
2023/10/16 13:55:20;;;;;;;0.97;0.97;;;15.70;31.20;;;;;;20646;6860;124059;-73
2023/10/16 13:57:47;;;;;;;1.10;0.95;;;15.70;32.40;;;;;;20660;6860;121684;-73
2023/10/16 14:00:28;;;;;;;1.23;1.13;;;15.20;33.20;;;;;;20657;6861;117740;-73
2023/10/16 14:02:37;;;;;;;1.73;1.20;;;15.20;31.80;;;;;;20403;6861;279547;-74
2023/10/16 14:05:06;;;;;;;1.40;1.30;;;15.20;31.50;;;;;;20675;6861;118638;-74
2023/10/16 14:07:30;;;;;;;1.07;1.03;;;15.20;32.50;;;;;;20438;6861;308625;-73
2023/10/16 14:09:56;;;;;;;0.93;0.93;;;15.30;31.30;;;;;;20680;6861;121905;-73
2023/10/16 14:12:25;;;;;;;1.17;1.10;;;15.30;32.40;;;;;;20458;6861;279763;-73
2023/10/16 14:14:51;;;;;;;1.20;1.10;;;15.40;32.40;;;;;;20664;6861;118318;-73